Time;durP1;ratioP1;P1;durP2;ratioP2;P2;SDS_P1;SDS_P2;PMS_P1;PMS_P2;Temp;Humidity;BMP_temperature;BMP_pressure;BME280_temperature;BME280_humidity;BME280_pressure;Samples;Min_cycle;Max_cycle;Signal;HPM_P1;HPM_P2
2022/03/20 00:00:06;;;;;;;21.87;13.60;;;10.80;99.90;;;;;;1885653;75;21643;-88
2022/03/20 00:03:11;;;;;;;17.95;11.95;;;10.90;99.90;;;;;;1890862;75;21169;-89
2022/03/20 00:06:05;;;;;;;16.95;11.93;;;10.80;99.90;;;;;;1898129;75;21140;-88
2022/03/20 00:11:36;;;;;;;19.32;13.18;;;10.80;99.90;;;;;;1933400;72;22277;-89
2022/03/20 00:18:27;;;;;;;22.35;13.90;;;10.70;99.90;;;;;;2071305;68;22598;-88
2022/03/20 00:21:39;;;;;;;21.70;13.60;;;10.70;99.90;;;;;;2011181;70;21109;-88
2022/03/20 00:24:30;;;;;;;22.48;13.20;;;10.60;99.90;;;;;;2011371;70;21035;-88
2022/03/20 00:27:33;;;;;;;24.98;14.38;;;10.50;99.90;;;;;;1998952;72;21108;-88
2022/03/20 00:30:31;;;;;;;24.50;14.83;;;10.50;99.90;;;;;;2022542;70;21059;-87
2022/03/20 00:33:23;;;;;;;23.60;14.93;;;10.40;99.90;;;;;;1998761;70;21036;-89
2022/03/20 00:36:16;;;;;;;28.15;14.43;;;10.40;99.90;;;;;;2006340;70;21106;-88
2022/03/20 00:39:08;;;;;;;18.70;12.85;;;10.50;99.90;;;;;;2009673;70;21078;-89
2022/03/20 00:42:00;;;;;;;22.52;14.15;;;10.50;99.90;;;;;;2015179;70;21104;-88
2022/03/20 00:50:32;;;;;;;23.95;14.23;;;10.50;99.90;;;;;;1933381;72;22228;-90
2022/03/20 00:53:43;;;;;;;24.25;13.68;;;10.40;99.90;;;;;;1905321;75;21611;-90
2022/03/20 00:56:35;;;;;;;20.60;13.60;;;10.40;99.90;;;;;;1896643;75;21083;-88
2022/03/20 00:59:26;;;;;;;21.87;14.05;;;10.40;99.90;;;;;;1901024;75;21101;-87
2022/03/20 01:02:18;;;;;;;23.62;14.25;;;10.50;99.90;;;;;;1899548;74;21590;-87
2022/03/20 01:07:51;;;;;;;20.23;14.00;;;10.70;99.90;;;;;;1927361;72;22679;-87
2022/03/20 01:11:01;;;;;;;20.88;13.83;;;10.60;99.90;;;;;;1879493;75;21202;-89
2022/03/20 01:13:55;;;;;;;19.85;14.20;;;10.50;99.90;;;;;;1880545;75;21198;-89
2022/03/20 01:16:46;;;;;;;21.75;13.32;;;10.40;99.90;;;;;;1908854;74;21150;-89
2022/03/20 01:22:16;;;;;;;22.87;14.58;;;10.30;99.90;;;;;;1921756;72;22176;-87
2022/03/20 01:28:20;;;;;;;24.50;15.20;;;10.20;99.90;;;;;;1946728;72;22295;-87
2022/03/20 01:34:09;;;;;;;16.05;12.37;;;10.20;99.90;;;;;;1958296;72;22103;-89
2022/03/20 01:37:19;;;;;;;23.22;13.90;;;10.20;99.90;;;;;;1908181;75;21162;-89
2022/03/20 01:40:12;;;;;;;21.25;13.35;;;10.10;99.90;;;;;;1911802;73;21066;-88
2022/03/20 01:45:41;;;;;;;20.52;13.83;;;10.20;99.90;;;;;;1942756;72;22581;-89
2022/03/20 01:54:58;;;;;;;24.47;15.05;;;10.00;99.90;;;;;;1864635;76;21047;-89
2022/03/20 01:57:49;;;;;;;22.75;15.15;;;10.00;99.90;;;;;;1887035;75;21125;-88
2022/03/20 02:00:41;;;;;;;19.52;13.10;;;9.90;99.90;;;;;;1888694;75;21217;-89
2022/03/20 02:06:11;;;;;;;22.10;14.18;;;9.80;99.90;;;;;;1940925;72;22173;-89
2022/03/20 02:09:22;;;;;;;21.77;14.33;;;9.90;99.90;;;;;;1909569;75;21051;-90
2022/03/20 02:12:14;;;;;;;18.27;13.20;;;9.90;99.90;;;;;;1903554;75;21116;-88
2022/03/20 02:17:47;;;;;;;20.70;14.45;;;9.80;99.90;;;;;;1957654;72;22139;-88
2022/03/20 02:20:57;;;;;;;24.63;14.50;;;9.80;99.90;;;;;;1921004;73;21118;-88
2022/03/20 02:26:29;;;;;;;23.32;14.63;;;9.60;99.90;;;;;;1938603;72;22209;-89
2022/03/20 02:32:18;;;;;;;18.60;13.83;;;9.60;99.90;;;;;;1940996;72;22633;-87
2022/03/20 02:35:31;;;;;;;18.92;14.43;;;9.60;99.90;;;;;;1920452;73;21045;-87
2022/03/20 02:41:14;;;;;;;23.45;15.38;;;9.50;99.90;;;;;;1927390;72;22153;-87
2022/03/20 02:44:13;;;;;;;22.00;14.30;;;9.50;99.90;;;;;;1883047;75;21018;-89
2022/03/20 02:47:07;;;;;;;23.67;14.13;;;9.50;99.90;;;;;;1879358;75;21147;-89
2022/03/20 02:50:03;;;;;;;24.85;15.38;;;9.40;99.90;;;;;;1837076;78;21071;-88
2022/03/20 02:52:58;;;;;;;20.85;13.98;;;9.30;99.90;;;;;;1882008;75;21188;-88
2022/03/20 02:55:50;;;;;;;23.90;15.18;;;9.40;99.90;;;;;;1889621;75;21101;-88
2022/03/20 02:58:41;;;;;;;20.60;15.08;;;9.30;99.90;;;;;;1886889;75;21642;-88
2022/03/20 03:01:32;;;;;;;18.20;13.58;;;9.30;99.90;;;;;;1870267;75;21150;-88
2022/03/20 03:04:24;;;;;;;22.95;14.03;;;9.30;99.90;;;;;;1893927;75;21721;-88
2022/03/20 03:07:15;;;;;;;23.35;14.47;;;9.30;99.90;;;;;;1876207;75;21093;-88
2022/03/20 03:13:19;;;;;;;20.48;14.43;;;9.20;99.90;;;;;;1883698;75;21038;-90
2022/03/20 03:16:13;;;;;;;22.87;14.65;;;9.20;99.90;;;;;;1900575;75;21075;-88
2022/03/20 03:19:04;;;;;;;20.72;14.75;;;9.20;99.90;;;;;;1883229;75;21221;-88
2022/03/20 03:21:56;;;;;;;23.35;14.87;;;9.20;99.90;;;;;;1892671;75;21161;-88
2022/03/20 03:27:27;;;;;;;23.50;14.93;;;9.20;99.90;;;;;;1943930;72;22123;-89
2022/03/20 03:30:38;;;;;;;21.02;15.43;;;9.10;99.90;;;;;;1900557;75;21085;-88
2022/03/20 03:33:29;;;;;;;22.65;15.08;;;9.10;99.90;;;;;;1883486;75;21103;-84
2022/03/20 03:36:22;;;;;;;21.05;14.65;;;9.10;99.90;;;;;;1894454;75;21161;-83
2022/03/20 03:39:15;;;;;;;20.92;14.85;;;9.10;99.90;;;;;;1873359;75;21129;-83
2022/03/20 03:42:08;;;;;;;23.42;15.35;;;9.00;99.90;;;;;;1881537;75;21167;-84
2022/03/20 03:47:51;;;;;;;22.50;14.50;;;8.90;99.90;;;;;;1944066;72;22155;-85
2022/03/20 03:51:01;;;;;;;22.62;15.45;;;8.90;99.90;;;;;;1926794;73;21124;-84
2022/03/20 03:56:33;;;;;;;24.35;14.90;;;8.80;99.90;;;;;;1927831;72;22609;-83
2022/03/20 03:59:43;;;;;;;21.62;15.28;;;8.80;99.90;;;;;;1874639;75;21675;-85
2022/03/20 04:05:18;;;;;;;19.42;14.40;;;8.80;99.90;;;;;;1936692;72;22170;-85
2022/03/20 04:08:28;;;;;;;22.02;15.35;;;8.80;99.90;;;;;;1904213;75;21105;-85
2022/03/20 04:14:00;;;;;;;20.43;15.10;;;8.70;99.90;;;;;;1953543;72;22230;-85
2022/03/20 04:17:11;;;;;;;22.40;14.75;;;8.70;99.90;;;;;;1885865;74;21133;-85
2022/03/20 04:26:14;;;;;;;;;;;8.70;99.90;;;;;;1933306;73;21055;-85
2022/03/20 04:29:05;;;;;;;22.17;14.45;;;8.60;99.90;;;;;;1949947;73;20183;-85
2022/03/20 04:31:58;;;;;;;20.80;14.43;;;8.60;99.90;;;;;;1928457;73;21593;-85
2022/03/20 04:34:49;;;;;;;23.27;15.15;;;8.60;99.90;;;;;;1950578;73;21486;-84
2022/03/20 04:40:21;;;;;;;21.90;15.25;;;8.50;99.90;;;;;;1939698;72;22235;-85
2022/03/20 04:43:31;;;;;;;22.30;14.70;;;8.50;99.90;;;;;;1873087;75;21176;-84
2022/03/20 04:46:23;;;;;;;20.00;13.88;;;8.50;99.90;;;;;;1885516;75;21281;-84
2022/03/20 04:58:31;;;;;;;18.73;13.68;;;8.50;99.90;;;;;;1894583;75;21209;-84
2022/03/20 05:01:23;;;;;;;22.00;14.20;;;8.40;99.90;;;;;;1916998;74;21145;-84
2022/03/20 05:04:14;;;;;;;19.10;13.70;;;8.40;99.90;;;;;;1903715;75;21109;-84
2022/03/20 05:07:07;;;;;;;21.80;14.30;;;8.40;99.90;;;;;;1891532;75;21187;-84
2022/03/20 05:13:21;;;;;;;19.80;14.07;;;8.40;99.90;;;;;;1884831;75;21137;-84
2022/03/20 05:16:13;;;;;;;20.57;13.70;;;8.30;99.90;;;;;;1912891;75;21098;-84
2022/03/20 05:19:06;;;;;;;20.50;14.35;;;8.20;99.90;;;;;;1903638;75;21657;-83
2022/03/20 05:21:58;;;;;;;19.85;14.13;;;8.20;99.90;;;;;;1906734;75;21094;-83
2022/03/20 05:24:49;;;;;;;21.67;14.83;;;8.20;99.90;;;;;;1900973;75;21141;-86
2022/03/20 05:27:41;;;;;;;20.15;14.50;;;8.20;99.90;;;;;;1906175;75;21052;-84
2022/03/20 05:30:34;;;;;;;22.60;14.50;;;8.10;99.90;;;;;;1907931;75;21063;-84
2022/03/20 05:33:25;;;;;;;20.70;14.23;;;8.10;99.90;;;;;;1906678;75;21063;-84
2022/03/20 05:36:17;;;;;;;21.80;13.88;;;7.90;99.90;;;;;;1906822;75;21084;-84
2022/03/20 05:39:12;;;;;;;20.82;13.58;;;7.90;99.90;;;;;;1888502;75;21088;-85
2022/03/20 05:42:05;;;;;;;24.23;15.23;;;8.00;99.90;;;;;;1896778;75;21149;-84
2022/03/20 05:47:35;;;;;;;20.75;13.60;;;8.00;99.90;;;;;;1928664;72;22163;-85
2022/03/20 05:53:37;;;;;;;19.95;13.60;;;8.00;99.90;;;;;;1940957;72;22139;-85
2022/03/20 05:59:57;;;;;;;22.98;14.50;;;8.00;99.90;;;;;;1908700;74;21110;-84
2022/03/20 06:02:48;;;;;;;24.95;13.98;;;8.10;99.90;;;;;;1905350;75;21545;-84
2022/03/20 06:05:40;;;;;;;20.75;14.05;;;8.10;99.90;;;;;;1908282;74;21228;-84
2022/03/20 06:08:35;;;;;;;22.67;14.33;;;8.10;99.90;;;;;;1919702;73;21544;-83
2022/03/20 06:11:26;;;;;;;19.67;14.28;;;8.20;99.90;;;;;;1915540;74;21109;-83
2022/03/20 06:17:00;;;;;;;23.05;14.00;;;8.20;99.90;;;;;;1938120;72;22152;-86
2022/03/20 06:22:55;;;;;;;22.82;13.78;;;8.20;99.90;;;;;;1963739;72;22663;-89
2022/03/20 06:26:08;;;;;;;20.80;13.68;;;8.30;99.90;;;;;;1930222;73;21047;-89
2022/03/20 06:31:45;;;;;;;19.40;13.62;;;8.40;99.90;;;;;;1955981;72;22196;-89
2022/03/20 06:34:57;;;;;;;20.43;14.03;;;8.40;99.90;;;;;;1925225;73;21146;-88
2022/03/20 06:37:54;;;;;;;19.60;13.43;;;8.40;99.90;;;;;;1921974;73;21039;-88
2022/03/20 06:40:45;;;;;;;18.85;13.75;;;8.40;99.90;;;;;;1938603;73;21055;-88
2022/03/20 06:43:38;;;;;;;20.82;13.32;;;8.40;99.90;;;;;;1924414;73;21055;-87
2022/03/20 06:46:30;;;;;;;21.25;13.85;;;8.50;99.90;;;;;;1935079;73;21168;-88
2022/03/20 06:52:03;;;;;;;21.62;15.15;;;8.50;99.90;;;;;;1922046;72;22334;-88
2022/03/20 06:55:18;;;;;;;24.32;15.78;;;8.50;99.90;;;;;;1886261;74;21124;-87
2022/03/20 06:58:11;;;;;;;23.27;15.45;;;8.60;99.90;;;;;;1900045;75;21146;-89
2022/03/20 07:01:03;;;;;;;24.05;15.88;;;8.60;99.90;;;;;;1912766;74;21101;-88
2022/03/20 07:03:58;;;;;;;25.95;15.60;;;8.70;99.90;;;;;;1903830;75;21089;-89
2022/03/20 07:06:49;;;;;;;21.77;15.30;;;8.70;99.90;;;;;;1917504;75;21161;-88
2022/03/20 07:12:21;;;;;;;21.87;15.08;;;8.80;99.90;;;;;;1934889;72;22126;-88
2022/03/20 07:15:32;;;;;;;23.60;15.40;;;9.00;99.90;;;;;;1899343;75;21082;-88
2022/03/20 07:18:24;;;;;;;22.40;15.53;;;9.10;99.90;;;;;;1894666;75;21824;-88
2022/03/20 07:21:18;;;;;;;21.73;15.15;;;9.20;99.90;;;;;;1892176;75;21080;-88
2022/03/20 07:32:57;;;;;;;21.50;15.20;;;9.80;99.90;;;;;;1941551;72;22554;-90
2022/03/20 07:36:08;;;;;;;19.40;14.40;;;9.90;99.90;;;;;;1902716;74;21077;-88
2022/03/20 07:41:40;;;;;;;22.73;14.75;;;9.90;99.90;;;;;;1936053;72;22627;-89
2022/03/20 07:44:50;;;;;;;21.68;14.63;;;10.00;99.90;;;;;;1894080;74;21135;-89
2022/03/20 07:47:42;;;;;;;25.25;15.40;;;10.10;99.90;;;;;;1905774;75;21059;-89
2022/03/20 07:50:35;;;;;;;20.43;15.00;;;10.30;99.90;;;;;;1903266;75;21058;-89
2022/03/20 07:53:27;;;;;;;20.15;14.80;;;10.30;99.90;;;;;;1896845;75;21087;-89
2022/03/20 07:56:21;;;;;;;23.12;14.78;;;10.30;99.90;;;;;;1892388;75;21169;-88
2022/03/20 07:59:12;;;;;;;20.37;14.55;;;10.10;99.90;;;;;;1911773;74;21043;-89
2022/03/20 08:02:06;;;;;;;20.43;14.98;;;10.00;99.90;;;;;;1894430;75;21123;-88
2022/03/20 08:04:58;;;;;;;23.70;14.38;;;10.00;99.90;;;;;;1903973;74;21074;-89
2022/03/20 08:07:50;;;;;;;22.30;14.90;;;10.20;99.90;;;;;;1895749;75;21471;-88
2022/03/20 08:10:42;;;;;;;22.17;14.73;;;10.40;99.90;;;;;;1888010;75;21106;-87
2022/03/20 08:13:33;;;;;;;20.45;14.75;;;10.40;99.90;;;;;;1893309;75;21061;-89
2022/03/20 08:16:26;;;;;;;20.68;14.83;;;10.60;99.90;;;;;;1912141;75;21124;-88
2022/03/20 08:19:19;;;;;;;20.62;15.85;;;10.60;99.90;;;;;;1884879;75;21130;-88
2022/03/20 08:22:11;;;;;;;21.45;15.50;;;10.60;99.90;;;;;;1907035;75;21051;-88
2022/03/20 08:27:46;;;;;;;21.37;15.68;;;10.80;99.90;;;;;;1949982;72;22218;-89
2022/03/20 08:30:57;;;;;;;22.32;15.58;;;10.90;99.90;;;;;;1903778;75;21109;-88
2022/03/20 08:33:52;;;;;;;22.87;16.23;;;11.00;99.90;;;;;;1883932;75;21059;-88
2022/03/20 08:36:44;;;;;;;21.07;15.48;;;11.10;99.90;;;;;;1906083;75;21070;-88
2022/03/20 08:39:36;;;;;;;22.40;15.78;;;11.20;99.90;;;;;;1907863;75;21135;-88
2022/03/20 08:42:28;;;;;;;18.35;13.68;;;11.20;99.90;;;;;;1895639;75;21099;-76
2022/03/20 08:45:21;;;;;;;22.42;15.72;;;11.40;99.90;;;;;;1895607;75;21085;-76
2022/03/20 08:48:13;;;;;;;20.32;14.58;;;11.40;99.90;;;;;;1883083;75;21124;-76
2022/03/20 08:51:04;;;;;;;17.27;12.95;;;11.50;99.90;;;;;;1899686;75;21056;-93
2022/03/20 08:56:37;;;;;;;19.40;14.28;;;11.80;99.90;;;;;;1943281;72;22253;-92
2022/03/20 08:59:46;;;;;;;21.93;15.10;;;11.90;99.90;;;;;;1918427;73;21121;-92
2022/03/20 09:02:38;;;;;;;23.02;15.63;;;12.10;99.90;;;;;;1946883;73;21085;-88
2022/03/20 09:05:30;;;;;;;21.05;15.05;;;12.20;99.90;;;;;;1947128;73;21239;-88
2022/03/20 09:08:21;;;;;;;24.70;16.17;;;12.20;99.90;;;;;;1935444;73;21579;-88
2022/03/20 09:11:12;;;;;;;22.42;16.10;;;12.20;99.90;;;;;;1917713;73;21163;-88
2022/03/20 09:14:07;;;;;;;21.62;16.15;;;12.30;99.90;;;;;;1921407;73;21098;-90
2022/03/20 09:20:09;;;;;;;23.07;15.83;;;12.40;99.90;;;;;;1927964;73;21176;-89
2022/03/20 09:23:01;;;;;;;21.48;16.57;;;12.40;99.90;;;;;;1880650;76;21061;-89
2022/03/20 09:25:53;;;;;;;24.35;17.10;;;12.40;99.90;;;;;;1915065;73;21106;-89
2022/03/20 09:28:48;;;;;;;21.07;15.23;;;12.60;99.90;;;;;;1925877;73;21155;-89
2022/03/20 09:31:39;;;;;;;20.48;14.50;;;12.80;99.90;;;;;;1928006;73;21068;-89
2022/03/20 09:34:33;;;;;;;19.17;14.28;;;12.90;99.90;;;;;;1928130;73;21047;-89
2022/03/20 09:40:10;;;;;;;18.90;14.23;;;13.00;99.90;;;;;;1946633;72;22142;-90
2022/03/20 09:43:20;;;;;;;18.20;14.23;;;13.00;99.90;;;;;;1905812;75;21091;-89
2022/03/20 09:46:12;;;;;;;21.62;13.80;;;13.00;99.90;;;;;;1888831;75;21064;-88
2022/03/20 09:49:07;;;;;;;19.77;13.83;;;13.00;99.90;;;;;;1896297;75;21095;-87
2022/03/20 09:51:59;;;;;;;18.82;12.75;;;13.10;99.90;;;;;;1884716;75;21106;-88
2022/03/20 09:54:50;;;;;;;15.32;11.63;;;12.90;99.90;;;;;;1900300;75;21209;-87
2022/03/20 09:57:41;;;;;;;15.88;12.43;;;13.00;99.90;;;;;;1895101;75;21090;-88
2022/03/20 10:00:33;;;;;;;17.12;11.75;;;13.10;99.90;;;;;;1911496;75;21187;-86
2022/03/20 10:03:25;;;;;;;17.57;12.05;;;13.30;99.90;;;;;;1885716;75;21141;-87
2022/03/20 10:09:13;;;;;;;15.98;11.63;;;13.60;99.90;;;;;;1943938;72;22205;-89
2022/03/20 10:12:35;;;;;;;17.50;11.65;;;13.50;99.90;;;;;;1917550;75;21260;-88
2022/03/20 10:18:11;;;;;;;16.50;11.60;;;13.40;99.90;;;;;;1950037;72;22087;-87
2022/03/20 10:21:22;;;;;;;17.75;11.63;;;13.40;99.90;;;;;;1910323;75;21087;-87
2022/03/20 10:24:18;;;;;;;19.30;11.70;;;13.50;99.90;;;;;;1897100;75;21075;-86
2022/03/20 10:27:16;;;;;;;15.80;10.83;;;13.20;99.90;;;;;;1900184;75;21107;-86
2022/03/20 10:33:01;;;;;;;19.20;11.53;;;13.30;99.90;;;;;;1950215;72;22451;-85
2022/03/20 10:36:14;;;;;;;17.70;10.53;;;13.40;99.90;;;;;;1900940;75;21389;-86
2022/03/20 10:41:47;;;;;;;17.92;11.05;;;13.40;99.90;;;;;;1944716;72;22198;-85
2022/03/20 10:45:09;;;;;;;16.40;10.50;;;13.60;99.90;;;;;;1886671;74;21069;-86
2022/03/20 10:48:03;;;;;;;18.05;10.30;;;13.80;99.90;;;;;;1893251;75;21146;-87
2022/03/20 10:50:56;;;;;;;15.13;9.95;;;14.00;99.90;;;;;;1899712;75;21546;-86
2022/03/20 10:53:56;;;;;;;16.23;10.18;;;14.00;99.90;;;;;;1894823;75;21067;-86
2022/03/20 10:57:01;;;;;;;12.18;9.53;;;14.00;99.90;;;;;;1904603;75;21056;-86
2022/03/20 11:00:00;;;;;;;16.93;9.88;;;13.90;99.90;;;;;;1888640;75;21233;-86
2022/03/20 11:02:54;;;;;;;14.78;10.05;;;13.80;99.90;;;;;;1888267;75;21451;-85
2022/03/20 11:05:48;;;;;;;16.02;9.73;;;13.70;99.90;;;;;;1894438;75;21110;-86
2022/03/20 11:08:41;;;;;;;16.40;10.28;;;13.70;99.90;;;;;;1899077;75;21050;-85
2022/03/20 11:11:35;;;;;;;14.25;9.90;;;13.70;99.90;;;;;;1904393;75;21117;-86
2022/03/20 11:17:12;;;;;;;17.42;9.40;;;13.80;99.90;;;;;;1947630;72;22347;-87
2022/03/20 11:20:24;;;;;;;13.72;9.48;;;13.90;99.90;;;;;;1917126;75;21126;-86
2022/03/20 11:23:22;;;;;;;13.22;8.65;;;13.80;99.90;;;;;;1917336;75;21066;-86
2022/03/20 11:26:15;;;;;;;13.03;8.95;;;14.00;99.90;;;;;;1896045;75;21180;-85
2022/03/20 11:29:09;;;;;;;14.28;9.05;;;13.90;99.90;;;;;;1884693;76;21110;-86
2022/03/20 11:32:01;;;;;;;11.93;7.70;;;13.90;99.90;;;;;;1898939;75;21051;-85
2022/03/20 11:34:56;;;;;;;11.80;8.55;;;14.20;99.90;;;;;;1897445;74;21047;-85
2022/03/20 11:37:50;;;;;;;15.28;8.93;;;14.30;99.90;;;;;;1888972;75;21546;-85
2022/03/20 11:40:43;;;;;;;11.12;8.20;;;14.50;99.90;;;;;;1917281;75;21127;-86
2022/03/20 11:46:27;;;;;;;12.47;8.18;;;14.50;99.90;;;;;;1953433;72;22219;-87
2022/03/20 11:49:34;;;;;;;15.20;8.33;;;14.70;99.90;;;;;;1895490;75;21117;-85
2022/03/20 11:52:31;;;;;;;12.90;7.97;;;14.80;99.90;;;;;;1911972;75;21051;-85
2022/03/20 11:58:37;;;;;;;12.82;7.97;;;15.10;99.90;;;;;;1957981;72;22600;-85
2022/03/20 12:02:01;;;;;;;12.10;7.63;;;15.00;99.90;;;;;;1896439;75;21091;-85
2022/03/20 12:05:00;;;;;;;12.65;7.80;;;14.90;99.90;;;;;;1906803;75;21859;-85
2022/03/20 12:07:56;;;;;;;13.45;8.23;;;14.90;99.90;;;;;;1910881;75;21167;-86
2022/03/20 12:11:01;;;;;;;13.20;7.78;;;15.10;99.90;;;;;;1899347;75;21161;-86
2022/03/20 12:14:14;;;;;;;11.50;7.40;;;15.00;99.90;;;;;;1896089;75;21228;-85
2022/03/20 12:17:07;;;;;;;14.05;7.17;;;15.20;99.90;;;;;;1880980;75;21125;-85
2022/03/20 12:19:59;;;;;;;10.80;6.72;;;15.30;99.90;;;;;;1899822;75;21562;-85
2022/03/20 12:22:53;;;;;;;11.08;7.00;;;15.40;99.90;;;;;;1886558;75;21060;-86
2022/03/20 12:25:46;;;;;;;12.07;7.08;;;15.50;99.90;;;;;;1893280;75;21447;-85
2022/03/20 12:28:47;;;;;;;10.32;6.97;;;15.60;99.90;;;;;;1895068;75;21618;-85
2022/03/20 12:31:56;;;;;;;10.98;6.62;;;15.70;99.90;;;;;;1895277;75;21142;-86
2022/03/20 12:35:00;;;;;;;11.50;7.03;;;15.80;99.90;;;;;;1898366;75;21054;-85
2022/03/20 12:37:55;;;;;;;11.88;7.40;;;15.80;99.90;;;;;;1891068;75;21126;-85
2022/03/20 12:40:52;;;;;;;12.43;6.00;;;15.80;99.90;;;;;;1907006;75;21102;-85
2022/03/20 12:43:47;;;;;;;10.48;6.47;;;15.60;99.90;;;;;;1888467;75;21661;-85
2022/03/20 12:46:41;;;;;;;8.70;6.25;;;15.60;99.90;;;;;;1895576;75;21145;-87
2022/03/20 12:49:34;;;;;;;12.43;6.25;;;15.50;99.90;;;;;;1899239;75;21197;-85
2022/03/20 12:52:28;;;;;;;9.55;6.15;;;15.40;99.90;;;;;;1896906;75;21180;-84
2022/03/20 12:55:28;;;;;;;10.03;6.35;;;15.60;99.90;;;;;;1889851;75;21156;-84
2022/03/20 12:58:21;;;;;;;7.40;5.70;;;15.70;99.90;;;;;;1918092;74;21158;-85
2022/03/20 13:01:13;;;;;;;12.13;6.37;;;15.60;99.90;;;;;;1894502;74;21094;-84
2022/03/20 13:04:16;;;;;;;11.75;6.37;;;15.80;99.90;;;;;;1909850;74;21090;-85
2022/03/20 13:07:24;;;;;;;9.63;6.17;;;15.60;99.90;;;;;;1908266;74;21114;-85
2022/03/20 13:10:17;;;;;;;8.88;6.42;;;15.60;99.90;;;;;;1913134;74;21133;-86
2022/03/20 13:13:20;;;;;;;9.08;6.25;;;15.60;99.90;;;;;;1898458;74;21134;-86
2022/03/20 13:16:17;;;;;;;9.90;6.10;;;15.70;99.90;;;;;;1916192;74;21537;-76
2022/03/20 13:19:09;;;;;;;10.53;5.75;;;15.50;99.90;;;;;;1902020;74;21139;-75
2022/03/20 13:22:04;;;;;;;8.08;4.53;;;15.90;99.90;;;;;;1909078;74;21110;-75
2022/03/20 13:24:55;;;;;;;7.87;5.45;;;16.10;99.90;;;;;;1914140;74;21996;-75
2022/03/20 13:27:48;;;;;;;6.20;4.65;;;16.20;99.90;;;;;;1909436;74;21106;-74
2022/03/20 13:30:42;;;;;;;8.98;4.60;;;16.20;99.90;;;;;;1905731;74;21140;-75
2022/03/20 13:33:35;;;;;;;8.63;4.92;;;16.20;99.90;;;;;;1896435;74;21097;-82
2022/03/20 13:36:29;;;;;;;9.83;4.22;;;16.20;99.90;;;;;;1907592;74;21107;-82
2022/03/20 13:39:22;;;;;;;8.50;4.87;;;16.10;99.90;;;;;;1905853;74;21098;-82
2022/03/20 13:42:16;;;;;;;6.97;4.80;;;16.20;99.90;;;;;;1886233;74;21638;-82
2022/03/20 13:45:13;;;;;;;6.78;4.40;;;16.20;99.90;;;;;;1866173;76;21089;-83
2022/03/20 13:48:06;;;;;;;6.45;4.08;;;16.10;99.10;;;;;;1918210;74;21525;-83
2022/03/20 13:51:00;;;;;;;8.15;4.92;;;16.30;98.70;;;;;;1903912;74;21167;-84
2022/03/20 13:54:12;;;;;;;7.62;4.85;;;16.50;99.60;;;;;;1921979;74;21111;-83
2022/03/20 13:57:10;;;;;;;6.87;5.30;;;16.60;99.60;;;;;;1930343;74;21132;-83
2022/03/20 14:00:09;;;;;;;7.97;4.37;;;16.30;99.90;;;;;;1922357;74;21337;-82
2022/03/20 14:03:07;;;;;;;9.05;4.22;;;16.20;99.00;;;;;;1920236;74;21162;-83
2022/03/20 14:06:00;;;;;;;6.75;4.60;;;16.40;98.40;;;;;;1899725;75;21104;-82
2022/03/20 14:08:56;;;;;;;9.30;5.33;;;16.40;98.20;;;;;;1914521;74;21102;-83
2022/03/20 14:11:49;;;;;;;8.00;5.28;;;16.50;99.00;;;;;;1926217;74;21054;-83
2022/03/20 14:14:45;;;;;;;8.10;5.00;;;16.50;99.10;;;;;;1920962;74;21157;-82
2022/03/20 14:17:42;;;;;;;7.40;4.87;;;16.40;99.50;;;;;;1906383;73;21171;-82
2022/03/20 14:20:34;;;;;;;7.95;5.30;;;16.40;99.60;;;;;;1899477;75;21050;-83
2022/03/20 14:23:27;;;;;;;6.78;5.50;;;16.40;99.40;;;;;;1899838;74;21063;-84
2022/03/20 14:26:20;;;;;;;13.13;4.92;;;16.20;99.90;;;;;;1918563;74;21047;-83
2022/03/20 14:39:26;;;;;;;8.28;5.17;;;16.00;99.40;;;;;;1879313;76;21062;-83
2022/03/20 14:41:53;;;;;;;8.43;5.80;;;16.00;99.90;;;;;;1824046;77;21164;-83
2022/03/20 14:47:35;;;;;;;10.03;6.12;;;15.80;99.90;;;;;;1953558;72;22134;-86
2022/03/20 14:50:46;;;;;;;8.93;5.83;;;15.60;99.90;;;;;;1917480;75;21093;-84
2022/03/20 14:53:38;;;;;;;10.25;5.78;;;15.50;99.90;;;;;;1900181;75;21056;-85
2022/03/20 14:56:30;;;;;;;10.50;6.47;;;15.20;99.90;;;;;;1895505;75;21208;-85
2022/03/20 14:59:44;;;;;;;10.78;6.08;;;15.10;99.90;;;;;;1898468;75;21183;-84
2022/03/20 15:02:35;;;;;;;8.80;5.75;;;15.20;99.90;;;;;;1893667;75;21098;-88
2022/03/20 15:05:27;;;;;;;10.85;6.55;;;15.30;99.90;;;;;;1893041;75;21175;-78
2022/03/20 15:11:30;;;;;;;8.25;5.78;;;15.20;99.90;;;;;;1892629;75;21251;-80
2022/03/20 15:14:22;;;;;;;9.60;5.75;;;15.30;99.90;;;;;;1891256;75;21098;-81
2022/03/20 15:17:17;;;;;;;9.63;6.33;;;15.30;99.90;;;;;;1891589;75;21102;-80
2022/03/20 15:20:12;;;;;;;10.65;5.97;;;15.30;99.90;;;;;;1906870;75;21113;-81
2022/03/20 15:23:04;;;;;;;8.88;5.62;;;15.20;99.90;;;;;;1887991;75;21113;-80
2022/03/20 15:28:36;;;;;;;8.65;6.03;;;15.30;99.90;;;;;;1944189;72;22158;-80
2022/03/20 15:31:46;;;;;;;10.78;6.50;;;15.30;99.90;;;;;;1887849;75;21048;-80
2022/03/20 15:34:40;;;;;;;8.25;5.90;;;15.30;99.90;;;;;;1914547;75;21047;-80
2022/03/20 15:37:31;;;;;;;8.95;6.17;;;15.30;99.90;;;;;;1909003;75;21091;-80
2022/03/20 15:40:25;;;;;;;9.53;5.60;;;15.20;99.90;;;;;;1889711;75;21145;-81
2022/03/20 15:43:17;;;;;;;8.28;6.08;;;15.20;99.90;;;;;;1906598;75;21180;-80
2022/03/20 15:46:08;;;;;;;9.08;6.58;;;15.20;99.90;;;;;;1897623;75;21164;-80
2022/03/20 15:51:44;;;;;;;8.08;6.00;;;15.20;99.90;;;;;;1936205;72;22335;-80
2022/03/20 15:54:54;;;;;;;10.32;6.20;;;15.10;99.90;;;;;;1836674;77;21042;-81
2022/03/20 15:57:47;;;;;;;9.18;5.87;;;15.00;99.90;;;;;;1900421;75;21136;-80
2022/03/20 16:00:40;;;;;;;9.68;6.45;;;14.90;99.90;;;;;;1893508;75;21072;-80
2022/03/20 16:03:32;;;;;;;10.38;6.28;;;14.90;99.90;;;;;;1895713;75;21201;-83
2022/03/20 16:06:25;;;;;;;9.08;6.20;;;14.80;99.90;;;;;;1903251;75;21047;-82
2022/03/20 16:11:57;;;;;;;11.57;6.85;;;14.90;99.90;;;;;;1963445;72;22681;-81
2022/03/20 16:15:08;;;;;;;11.93;7.25;;;14.80;99.90;;;;;;1917583;73;21168;-81
2022/03/20 16:18:00;;;;;;;13.18;6.97;;;14.60;99.90;;;;;;1931086;73;21094;-81
2022/03/20 16:20:52;;;;;;;10.43;6.72;;;14.60;99.90;;;;;;1940081;73;21038;-81
2022/03/20 16:30:09;;;;;;;9.60;6.37;;;14.50;99.90;;;;;;1925276;73;21163;-81
2022/03/20 16:33:26;;;;;;;12.43;6.85;;;14.50;99.90;;;;;;1916889;75;21606;-81
2022/03/20 16:36:22;;;;;;;11.18;6.50;;;14.80;99.90;;;;;;1916490;75;21313;-81
2022/03/20 16:39:16;;;;;;;10.15;5.92;;;15.00;99.90;;;;;;1917366;75;21141;-81
2022/03/20 16:42:08;;;;;;;11.95;6.60;;;14.90;99.90;;;;;;1919745;73;21120;-81
2022/03/20 16:45:06;;;;;;;12.07;6.80;;;14.60;99.90;;;;;;1917105;75;21543;-82
2022/03/20 16:47:58;;;;;;;10.43;7.20;;;14.50;99.90;;;;;;1928259;73;21116;-82
2022/03/20 16:51:00;;;;;;;11.08;6.83;;;14.50;99.90;;;;;;1918536;73;21040;-82
2022/03/20 16:53:55;;;;;;;9.08;6.97;;;14.50;99.90;;;;;;1917222;73;21054;-82
2022/03/20 16:56:47;;;;;;;9.53;6.42;;;14.40;99.90;;;;;;1917446;75;21094;-82
2022/03/20 16:59:49;;;;;;;;;;;;;;;;;;;;;
2022/03/20 17:02:52;;;;;;;9.30;6.67;;;14.30;99.90;;;;;;1917348;75;21053;-82
2022/03/20 17:05:45;;;;;;;10.15;6.12;;;14.30;99.90;;;;;;1917515;75;21095;-82
2022/03/20 17:08:37;;;;;;;10.90;7.15;;;14.20;99.90;;;;;;1946334;73;21051;-82
2022/03/20 17:11:37;;;;;;;10.53;6.85;;;14.30;99.90;;;;;;1920178;73;21111;-82
2022/03/20 17:14:49;;;;;;;11.70;6.95;;;14.20;99.90;;;;;;1939686;73;21195;-82
2022/03/20 17:17:41;;;;;;;11.53;7.50;;;14.10;99.90;;;;;;1904891;75;21052;-84
2022/03/20 17:20:33;;;;;;;9.48;6.75;;;14.00;99.90;;;;;;1904829;75;21057;-83
2022/03/20 17:23:28;;;;;;;11.22;6.70;;;14.00;99.90;;;;;;1904296;75;21515;-83
2022/03/20 17:26:20;;;;;;;11.43;6.67;;;14.10;99.90;;;;;;1916790;75;21458;-84
2022/03/20 17:29:12;;;;;;;10.35;7.40;;;14.00;99.90;;;;;;1939028;73;21050;-83
2022/03/20 17:32:04;;;;;;;10.63;6.80;;;14.00;99.90;;;;;;1916781;73;21475;-82
2022/03/20 17:34:56;;;;;;;11.00;7.15;;;13.90;99.90;;;;;;1904241;75;21099;-83
2022/03/20 17:37:50;;;;;;;10.45;6.70;;;13.80;99.90;;;;;;1906646;74;21087;-83
2022/03/20 17:40:42;;;;;;;12.88;6.60;;;13.80;99.90;;;;;;1915399;74;21102;-83
2022/03/20 17:43:34;;;;;;;12.05;6.58;;;13.80;99.90;;;;;;1939209;73;21179;-83
2022/03/20 17:46:26;;;;;;;9.03;6.55;;;13.70;99.90;;;;;;1904314;75;21063;-83
2022/03/20 17:49:18;;;;;;;10.48;6.60;;;13.80;99.90;;;;;;1909559;74;21116;-83
2022/03/20 17:52:10;;;;;;;7.28;6.58;;;13.80;99.90;;;;;;1904260;74;21163;-83
2022/03/20 17:55:05;;;;;;;11.53;6.53;;;13.70;99.90;;;;;;1916556;75;21193;-83
2022/03/20 17:57:57;;;;;;;9.60;6.17;;;13.70;99.90;;;;;;1916820;75;21117;-83
2022/03/20 18:00:48;;;;;;;9.98;6.83;;;13.70;99.90;;;;;;1916972;75;21075;-83
2022/03/20 18:10:07;;;;;;;10.70;6.80;;;13.60;99.90;;;;;;1889286;75;21468;-85